sensor_id;sensor_type;location;lat;lon;timestamp;P1;durP1;ratioP1;P2;durP2;ratioP2
19030;SDS011;9648;51.130;13.978;2024-03-23T00:51:51;4.53;;;3.95;;
19030;SDS011;9648;51.130;13.978;2024-03-23T00:54:52;4.75;;;4.20;;
19030;SDS011;9648;51.130;13.978;2024-03-23T00:57:54;5.13;;;3.80;;
19030;SDS011;9648;51.130;13.978;2024-03-23T01:00:56;4.63;;;3.50;;
19030;SDS011;9648;51.130;13.978;2024-03-23T01:03:56;5.17;;;3.90;;
19030;SDS011;9648;51.130;13.978;2024-03-23T01:06:58;7.00;;;4.70;;
19030;SDS011;9648;51.130;13.978;2024-03-23T01:09:58;6.20;;;4.37;;
19030;SDS011;9648;51.130;13.978;2024-03-23T01:13:01;5.00;;;3.90;;
19030;SDS011;9648;51.130;13.978;2024-03-23T01:16:02;4.65;;;4.10;;
19030;SDS011;9648;51.130;13.978;2024-03-23T01:19:03;5.70;;;4.23;;
19030;SDS011;9648;51.130;13.978;2024-03-23T01:22:04;5.45;;;4.60;;
19030;SDS011;9648;51.130;13.978;2024-03-23T01:25:06;5.43;;;4.60;;
19030;SDS011;9648;51.130;13.978;2024-03-23T01:28:09;5.50;;;4.53;;
19030;SDS011;9648;51.130;13.978;2024-03-23T01:31:10;7.40;;;6.07;;
19030;SDS011;9648;51.130;13.978;2024-03-23T01:34:10;10.07;;;6.63;;
19030;SDS011;9648;51.130;13.978;2024-03-23T01:37:12;7.55;;;5.35;;
19030;SDS011;9648;51.130;13.978;2024-03-23T01:40:13;7.07;;;6.00;;
19030;SDS011;9648;51.130;13.978;2024-03-23T01:43:16;13.77;;;9.88;;
19030;SDS011;9648;51.130;13.978;2024-03-23T01:46:16;11.15;;;7.72;;
19030;SDS011;9648;51.130;13.978;2024-03-23T01:49:18;9.63;;;6.93;;
19030;SDS011;9648;51.130;13.978;2024-03-23T01:52:18;9.57;;;6.28;;
19030;SDS011;9648;51.130;13.978;2024-03-23T01:55:20;10.90;;;7.88;;
19030;SDS011;9648;51.130;13.978;2024-03-23T01:58:23;8.67;;;6.90;;
19030;SDS011;9648;51.130;13.978;2024-03-23T02:01:25;9.50;;;6.40;;
19030;SDS011;9648;51.130;13.978;2024-03-23T02:04:26;9.15;;;7.50;;
19030;SDS011;9648;51.130;13.978;2024-03-23T02:07:30;9.00;;;6.97;;
19030;SDS011;9648;51.130;13.978;2024-03-23T02:10:31;9.23;;;7.15;;
19030;SDS011;9648;51.130;13.978;2024-03-23T02:13:34;12.27;;;8.27;;
19030;SDS011;9648;51.130;13.978;2024-03-23T02:16:35;10.15;;;7.30;;
19030;SDS011;9648;51.130;13.978;2024-03-23T02:19:36;8.98;;;6.70;;
19030;SDS011;9648;51.130;13.978;2024-03-23T02:22:40;7.00;;;5.50;;
19030;SDS011;9648;51.130;13.978;2024-03-23T02:25:43;8.23;;;6.20;;
19030;SDS011;9648;51.130;13.978;2024-03-23T02:28:44;7.32;;;5.75;;
19030;SDS011;9648;51.130;13.978;2024-03-23T02:31:45;6.78;;;4.88;;
19030;SDS011;9648;51.130;13.978;2024-03-23T02:34:46;6.23;;;5.17;;
19030;SDS011;9648;51.130;13.978;2024-03-23T02:37:47;8.63;;;5.75;;
19030;SDS011;9648;51.130;13.978;2024-03-23T02:40:51;7.37;;;6.07;;
19030;SDS011;9648;51.130;13.978;2024-03-23T02:43:53;6.63;;;5.30;;
19030;SDS011;9648;51.130;13.978;2024-03-23T02:46:53;7.27;;;5.27;;
19030;SDS011;9648;51.130;13.978;2024-03-23T02:49:55;8.27;;;5.57;;
19030;SDS011;9648;51.130;13.978;2024-03-23T02:52:56;7.53;;;5.50;;
19030;SDS011;9648;51.130;13.978;2024-03-23T02:55:58;8.13;;;6.40;;
19030;SDS011;9648;51.130;13.978;2024-03-23T02:59:00;10.75;;;7.50;;
19030;SDS011;9648;51.130;13.978;2024-03-23T03:02:00;10.67;;;7.60;;
19030;SDS011;9648;51.130;13.978;2024-03-23T03:05:04;10.18;;;7.07;;
19030;SDS011;9648;51.130;13.978;2024-03-23T03:08:06;7.53;;;6.17;;
19030;SDS011;9648;51.130;13.978;2024-03-23T03:11:10;7.65;;;5.95;;
19030;SDS011;9648;51.130;13.978;2024-03-23T03:14:12;8.02;;;6.13;;
19030;SDS011;9648;51.130;13.978;2024-03-23T03:17:12;9.37;;;6.70;;
19030;SDS011;9648;51.130;13.978;2024-03-23T03:20:14;10.98;;;7.47;;
19030;SDS011;9648;51.130;13.978;2024-03-23T03:23:16;10.50;;;8.10;;
19030;SDS011;9648;51.130;13.978;2024-03-23T03:26:21;9.65;;;7.15;;
19030;SDS011;9648;51.130;13.978;2024-03-23T03:29:22;7.83;;;6.17;;
19030;SDS011;9648;51.130;13.978;2024-03-23T03:32:23;9.07;;;6.63;;
19030;SDS011;9648;51.130;13.978;2024-03-23T03:35:24;9.37;;;6.70;;
19030;SDS011;9648;51.130;13.978;2024-03-23T03:38:25;9.45;;;6.90;;
19030;SDS011;9648;51.130;13.978;2024-03-23T03:41:27;10.03;;;7.13;;
19030;SDS011;9648;51.130;13.978;2024-03-23T03:44:29;9.75;;;6.47;;
19030;SDS011;9648;51.130;13.978;2024-03-23T03:47:29;9.57;;;7.07;;
19030;SDS011;9648;51.130;13.978;2024-03-23T03:50:31;8.73;;;6.35;;
19030;SDS011;9648;51.130;13.978;2024-03-23T03:53:33;9.15;;;6.50;;
19030;SDS011;9648;51.130;13.978;2024-03-23T03:56:36;8.43;;;6.03;;
19030;SDS011;9648;51.130;13.978;2024-03-23T03:59:41;9.57;;;7.57;;
19030;SDS011;9648;51.130;13.978;2024-03-23T04:02:41;8.93;;;6.50;;
19030;SDS011;9648;51.130;13.978;2024-03-23T04:05:47;8.00;;;6.57;;
19030;SDS011;9648;51.130;13.978;2024-03-23T04:08:50;10.88;;;8.23;;
19030;SDS011;9648;51.130;13.978;2024-03-23T04:11:53;11.82;;;7.80;;
19030;SDS011;9648;51.130;13.978;2024-03-23T04:14:55;11.88;;;8.23;;
19030;SDS011;9648;51.130;13.978;2024-03-23T04:17:55;11.53;;;8.00;;
19030;SDS011;9648;51.130;13.978;2024-03-23T04:20:57;12.02;;;8.55;;
19030;SDS011;9648;51.130;13.978;2024-03-23T04:24:00;11.27;;;7.82;;
19030;SDS011;9648;51.130;13.978;2024-03-23T04:27:03;10.05;;;6.82;;
19030;SDS011;9648;51.130;13.978;2024-03-23T04:30:05;9.00;;;6.55;;
19030;SDS011;9648;51.130;13.978;2024-03-23T04:33:11;9.52;;;6.80;;
19030;SDS011;9648;51.130;13.978;2024-03-23T04:36:12;10.77;;;6.70;;
19030;SDS011;9648;51.130;13.978;2024-03-23T04:39:13;12.85;;;8.45;;
19030;SDS011;9648;51.130;13.978;2024-03-23T04:42:16;14.45;;;9.95;;
19030;SDS011;9648;51.130;13.978;2024-03-23T04:45:17;14.77;;;9.00;;
19030;SDS011;9648;51.130;13.978;2024-03-23T04:48:19;14.13;;;8.40;;
19030;SDS011;9648;51.130;13.978;2024-03-23T04:51:21;16.65;;;9.50;;
19030;SDS011;9648;51.130;13.978;2024-03-23T04:54:23;15.68;;;9.35;;
19030;SDS011;9648;51.130;13.978;2024-03-23T04:57:26;13.27;;;9.18;;
19030;SDS011;9648;51.130;13.978;2024-03-23T05:00:27;15.90;;;10.02;;
19030;SDS011;9648;51.130;13.978;2024-03-23T05:03:28;21.67;;;13.20;;
19030;SDS011;9648;51.130;13.978;2024-03-23T05:06:29;27.77;;;16.08;;
19030;SDS011;9648;51.130;13.978;2024-03-23T05:09:29;41.53;;;23.40;;
19030;SDS011;9648;51.130;13.978;2024-03-23T05:12:34;47.92;;;26.75;;
19030;SDS011;9648;51.130;13.978;2024-03-23T05:15:35;47.65;;;26.48;;
19030;SDS011;9648;51.130;13.978;2024-03-23T05:18:36;43.97;;;25.40;;
19030;SDS011;9648;51.130;13.978;2024-03-23T05:21:37;34.10;;;20.00;;
19030;SDS011;9648;51.130;13.978;2024-03-23T05:24:38;28.37;;;16.00;;
19030;SDS011;9648;51.130;13.978;2024-03-23T05:27:41;22.27;;;13.68;;
19030;SDS011;9648;51.130;13.978;2024-03-23T05:30:41;20.27;;;12.20;;
19030;SDS011;9648;51.130;13.978;2024-03-23T05:33:43;16.98;;;10.55;;
19030;SDS011;9648;51.130;13.978;2024-03-23T05:36:43;17.30;;;10.17;;
19030;SDS011;9648;51.130;13.978;2024-03-23T05:39:45;19.77;;;11.97;;
19030;SDS011;9648;51.130;13.978;2024-03-23T05:42:47;35.05;;;22.35;;
19030;SDS011;9648;51.130;13.978;2024-03-23T05:45:53;39.03;;;23.05;;
19030;SDS011;9648;51.130;13.978;2024-03-23T05:48:53;30.40;;;18.88;;
19030;SDS011;9648;51.130;13.978;2024-03-23T05:52:03;22.40;;;15.05;;
19030;SDS011;9648;51.130;13.978;2024-03-23T05:55:04;23.30;;;14.47;;
19030;SDS011;9648;51.130;13.978;2024-03-23T05:58:07;20.42;;;14.05;;
19030;SDS011;9648;51.130;13.978;2024-03-23T06:01:08;18.35;;;12.20;;
19030;SDS011;9648;51.130;13.978;2024-03-23T06:04:10;17.88;;;11.18;;
19030;SDS011;9648;51.130;13.978;2024-03-23T06:07:10;15.43;;;10.27;;
19030;SDS011;9648;51.130;13.978;2024-03-23T06:10:14;20.02;;;12.68;;
19030;SDS011;9648;51.130;13.978;2024-03-23T06:13:16;36.92;;;22.50;;
19030;SDS011;9648;51.130;13.978;2024-03-23T06:16:17;39.67;;;24.17;;
19030;SDS011;9648;51.130;13.978;2024-03-23T06:19:23;33.85;;;20.42;;
19030;SDS011;9648;51.130;13.978;2024-03-23T06:22:27;25.70;;;16.63;;
19030;SDS011;9648;51.130;13.978;2024-03-23T06:25:27;37.63;;;23.20;;
19030;SDS011;9648;51.130;13.978;2024-03-23T06:28:30;28.20;;;19.37;;
19030;SDS011;9648;51.130;13.978;2024-03-23T06:31:30;29.98;;;19.15;;
19030;SDS011;9648;51.130;13.978;2024-03-23T06:34:32;24.95;;;16.55;;
19030;SDS011;9648;51.130;13.978;2024-03-23T06:37:33;21.67;;;14.37;;
19030;SDS011;9648;51.130;13.978;2024-03-23T06:40:35;18.73;;;12.70;;
19030;SDS011;9648;51.130;13.978;2024-03-23T06:43:38;15.60;;;10.20;;
19030;SDS011;9648;51.130;13.978;2024-03-23T06:46:39;13.75;;;9.13;;
19030;SDS011;9648;51.130;13.978;2024-03-23T06:49:41;15.52;;;9.98;;
19030;SDS011;9648;51.130;13.978;2024-03-23T06:52:41;15.23;;;9.90;;
19030;SDS011;9648;51.130;13.978;2024-03-23T06:55:43;13.07;;;8.73;;
19030;SDS011;9648;51.130;13.978;2024-03-23T06:58:52;12.80;;;9.03;;
19030;SDS011;9648;51.130;13.978;2024-03-23T07:01:54;15.25;;;9.80;;
19030;SDS011;9648;51.130;13.978;2024-03-23T07:04:54;12.37;;;9.20;;
19030;SDS011;9648;51.130;13.978;2024-03-23T07:07:56;12.27;;;9.10;;
19030;SDS011;9648;51.130;13.978;2024-03-23T07:10:56;14.17;;;9.40;;
19030;SDS011;9648;51.130;13.978;2024-03-23T07:13:59;14.02;;;9.07;;
19030;SDS011;9648;51.130;13.978;2024-03-23T07:17:01;15.02;;;9.00;;
19030;SDS011;9648;51.130;13.978;2024-03-23T07:20:01;17.00;;;11.60;;
19030;SDS011;9648;51.130;13.978;2024-03-23T07:23:04;18.80;;;11.95;;
19030;SDS011;9648;51.130;13.978;2024-03-23T07:26:04;20.60;;;14.97;;
19030;SDS011;9648;51.130;13.978;2024-03-23T07:29:08;21.97;;;14.20;;
19030;SDS011;9648;51.130;13.978;2024-03-23T07:32:08;16.25;;;11.63;;
19030;SDS011;9648;51.130;13.978;2024-03-23T07:35:11;16.17;;;10.77;;
19030;SDS011;9648;51.130;13.978;2024-03-23T07:38:12;17.10;;;11.77;;
19030;SDS011;9648;51.130;13.978;2024-03-23T07:41:14;16.38;;;12.27;;
19030;SDS011;9648;51.130;13.978;2024-03-23T07:44:19;17.58;;;11.60;;
19030;SDS011;9648;51.130;13.978;2024-03-23T07:47:19;14.18;;;10.02;;
19030;SDS011;9648;51.130;13.978;2024-03-23T07:50:21;16.50;;;12.18;;
19030;SDS011;9648;51.130;13.978;2024-03-23T07:53:21;16.77;;;11.93;;
19030;SDS011;9648;51.130;13.978;2024-03-23T07:56:23;18.27;;;12.43;;
19030;SDS011;9648;51.130;13.978;2024-03-23T07:59:25;14.37;;;9.90;;
19030;SDS011;9648;51.130;13.978;2024-03-23T08:02:26;13.27;;;9.20;;
19030;SDS011;9648;51.130;13.978;2024-03-23T08:05:27;12.65;;;9.98;;
19030;SDS011;9648;51.130;13.978;2024-03-23T08:08:30;12.23;;;8.57;;
19030;SDS011;9648;51.130;13.978;2024-03-23T08:11:32;11.00;;;7.90;;
19030;SDS011;9648;51.130;13.978;2024-03-23T08:14:36;10.30;;;7.70;;
19030;SDS011;9648;51.130;13.978;2024-03-23T08:17:39;9.73;;;6.68;;
19030;SDS011;9648;51.130;13.978;2024-03-23T08:20:39;8.70;;;6.83;;
19030;SDS011;9648;51.130;13.978;2024-03-23T08:23:41;10.15;;;7.65;;
19030;SDS011;9648;51.130;13.978;2024-03-23T08:26:42;10.13;;;7.63;;
19030;SDS011;9648;51.130;13.978;2024-03-23T08:29:46;10.83;;;8.20;;
19030;SDS011;9648;51.130;13.978;2024-03-23T08:32:47;16.60;;;12.32;;
19030;SDS011;9648;51.130;13.978;2024-03-23T08:35:55;14.40;;;10.40;;
19030;SDS011;9648;51.130;13.978;2024-03-23T08:38:56;12.52;;;9.20;;
19030;SDS011;9648;51.130;13.978;2024-03-23T08:41:57;15.40;;;9.48;;
19030;SDS011;9648;51.130;13.978;2024-03-23T08:45:00;10.02;;;8.13;;
19030;SDS011;9648;51.130;13.978;2024-03-23T08:48:00;12.68;;;9.10;;
19030;SDS011;9648;51.130;13.978;2024-03-23T08:51:02;12.60;;;8.68;;
19030;SDS011;9648;51.130;13.978;2024-03-23T08:54:03;13.57;;;9.95;;
19030;SDS011;9648;51.130;13.978;2024-03-23T08:57:04;16.83;;;10.70;;
19030;SDS011;9648;51.130;13.978;2024-03-23T09:00:09;14.07;;;10.47;;
19030;SDS011;9648;51.130;13.978;2024-03-23T09:03:11;13.90;;;10.90;;
19030;SDS011;9648;51.130;13.978;2024-03-23T09:06:14;16.20;;;11.10;;
19030;SDS011;9648;51.130;13.978;2024-03-23T09:09:15;18.40;;;12.95;;
19030;SDS011;9648;51.130;13.978;2024-03-23T09:12:16;17.13;;;12.73;;
19030;SDS011;9648;51.130;13.978;2024-03-23T09:15:18;23.07;;;16.87;;
19030;SDS011;9648;51.130;13.978;2024-03-23T09:18:19;21.47;;;15.60;;
19030;SDS011;9648;51.130;13.978;2024-03-23T09:21:20;17.20;;;14.00;;
19030;SDS011;9648;51.130;13.978;2024-03-23T09:24:21;19.27;;;14.60;;
19030;SDS011;9648;51.130;13.978;2024-03-23T09:27:22;18.33;;;14.18;;
19030;SDS011;9648;51.130;13.978;2024-03-23T09:30:25;23.10;;;15.38;;
19030;SDS011;9648;51.130;13.978;2024-03-23T09:33:27;18.52;;;14.68;;
19030;SDS011;9648;51.130;13.978;2024-03-23T09:36:30;19.50;;;14.25;;
19030;SDS011;9648;51.130;13.978;2024-03-23T09:39:32;23.50;;;15.82;;
19030;SDS011;9648;51.130;13.978;2024-03-23T09:42:33;25.60;;;17.33;;
19030;SDS011;9648;51.130;13.978;2024-03-23T09:45:38;23.42;;;16.95;;
19030;SDS011;9648;51.130;13.978;2024-03-23T09:48:39;23.15;;;16.60;;
19030;SDS011;9648;51.130;13.978;2024-03-23T09:51:41;23.38;;;17.92;;
19030;SDS011;9648;51.130;13.978;2024-03-23T09:54:42;27.40;;;18.00;;
19030;SDS011;9648;51.130;13.978;2024-03-23T09:57:44;29.27;;;19.35;;
19030;SDS011;9648;51.130;13.978;2024-03-23T10:00:47;24.67;;;17.47;;
19030;SDS011;9648;51.130;13.978;2024-03-23T10:03:49;27.38;;;18.17;;
19030;SDS011;9648;51.130;13.978;2024-03-23T10:06:51;25.10;;;16.63;;
19030;SDS011;9648;51.130;13.978;2024-03-23T10:09:53;26.23;;;15.57;;
19030;SDS011;9648;51.130;13.978;2024-03-23T10:12:57;19.67;;;11.27;;
19030;SDS011;9648;51.130;13.978;2024-03-23T10:15:59;15.03;;;9.37;;
19030;SDS011;9648;51.130;13.978;2024-03-23T10:19:00;13.80;;;7.22;;
19030;SDS011;9648;51.130;13.978;2024-03-23T10:22:01;5.17;;;3.60;;
19030;SDS011;9648;51.130;13.978;2024-03-23T10:25:08;3.70;;;2.15;;
19030;SDS011;9648;51.130;13.978;2024-03-23T10:28:11;3.40;;;2.70;;
19030;SDS011;9648;51.130;13.978;2024-03-23T10:31:14;4.10;;;2.10;;
19030;SDS011;9648;51.130;13.978;2024-03-23T10:34:14;6.30;;;3.50;;
19030;SDS011;9648;51.130;13.978;2024-03-23T10:37:16;4.67;;;4.23;;
19030;SDS011;9648;51.130;13.978;2024-03-23T10:40:19;2.08;;;1.90;;
19030;SDS011;9648;51.130;13.978;2024-03-23T10:43:24;2.75;;;2.55;;
19030;SDS011;9648;51.130;13.978;2024-03-23T10:46:33;1.27;;;0.97;;
19030;SDS011;9648;51.130;13.978;2024-03-23T10:49:35;0.95;;;0.73;;
19030;SDS011;9648;51.130;13.978;2024-03-23T10:52:36;0.90;;;0.80;;
19030;SDS011;9648;51.130;13.978;2024-03-23T10:55:54;0.80;;;0.63;;
19030;SDS011;9648;51.130;13.978;2024-03-23T10:58:59;1.95;;;1.85;;
19030;SDS011;9648;51.130;13.978;2024-03-23T11:02:06;1.75;;;1.65;;
19030;SDS011;9648;51.130;13.978;2024-03-23T11:08:30;0.93;;;0.50;;
19030;SDS011;9648;51.130;13.978;2024-03-23T11:11:32;0.80;;;0.70;;
19030;SDS011;9648;51.130;13.978;2024-03-23T11:14:34;0.90;;;0.80;;
19030;SDS011;9648;51.130;13.978;2024-03-23T11:17:38;1.88;;;1.77;;
19030;SDS011;9648;51.130;13.978;2024-03-23T11:20:40;0.55;;;0.45;;
19030;SDS011;9648;51.130;13.978;2024-03-23T11:23:41;0.30;;;0.20;;
19030;SDS011;9648;51.130;13.978;2024-03-23T11:26:42;0.50;;;0.40;;
19030;SDS011;9648;51.130;13.978;2024-03-23T11:29:43;0.67;;;0.43;;
19030;SDS011;9648;51.130;13.978;2024-03-23T11:32:46;0.47;;;0.43;;
19030;SDS011;9648;51.130;13.978;2024-03-23T11:35:48;0.50;;;0.40;;
19030;SDS011;9648;51.130;13.978;2024-03-23T11:38:53;0.50;;;0.40;;
19030;SDS011;9648;51.130;13.978;2024-03-23T11:41:56;0.70;;;0.70;;
19030;SDS011;9648;51.130;13.978;2024-03-23T11:44:57;1.02;;;0.82;;
19030;SDS011;9648;51.130;13.978;2024-03-23T11:48:03;0.82;;;0.73;;
19030;SDS011;9648;51.130;13.978;2024-03-23T11:51:08;0.90;;;0.80;;
19030;SDS011;9648;51.130;13.978;2024-03-23T11:54:11;0.75;;;0.63;;
19030;SDS011;9648;51.130;13.978;2024-03-23T11:57:11;0.73;;;0.63;;
19030;SDS011;9648;51.130;13.978;2024-03-23T12:00:20;1.02;;;0.95;;
19030;SDS011;9648;51.130;13.978;2024-03-23T12:03:22;0.82;;;0.73;;
19030;SDS011;9648;51.130;13.978;2024-03-23T12:06:27;1.20;;;1.10;;
19030;SDS011;9648;51.130;13.978;2024-03-23T12:09:28;0.82;;;0.63;;
19030;SDS011;9648;51.130;13.978;2024-03-23T12:12:29;0.63;;;0.53;;
19030;SDS011;9648;51.130;13.978;2024-03-23T12:15:30;0.60;;;0.50;;
19030;SDS011;9648;51.130;13.978;2024-03-23T12:18:32;0.90;;;0.80;;
19030;SDS011;9648;51.130;13.978;2024-03-23T12:21:33;0.50;;;0.40;;
19030;SDS011;9648;51.130;13.978;2024-03-23T12:24:34;0.67;;;0.60;;
19030;SDS011;9648;51.130;13.978;2024-03-23T12:27:36;0.55;;;0.45;;
19030;SDS011;9648;51.130;13.978;2024-03-23T12:30:38;8.93;;;6.07;;
19030;SDS011;9648;51.130;13.978;2024-03-23T12:33:41;2.47;;;2.15;;
19030;SDS011;9648;51.130;13.978;2024-03-23T12:36:42;1.42;;;1.33;;
19030;SDS011;9648;51.130;13.978;2024-03-23T12:39:44;5.30;;;4.13;;
19030;SDS011;9648;51.130;13.978;2024-03-23T12:42:45;2.65;;;2.47;;
19030;SDS011;9648;51.130;13.978;2024-03-23T12:45:46;2.20;;;2.00;;
19030;SDS011;9648;51.130;13.978;2024-03-23T12:48:49;4.85;;;4.40;;
19030;SDS011;9648;51.130;13.978;2024-03-23T12:51:53;3.90;;;3.20;;
19030;SDS011;9648;51.130;13.978;2024-03-23T12:54:56;0.82;;;0.80;;
19030;SDS011;9648;51.130;13.978;2024-03-23T12:57:57;1.30;;;1.20;;
19030;SDS011;9648;51.130;13.978;2024-03-23T13:00:59;1.40;;;1.40;;
19030;SDS011;9648;51.130;13.978;2024-03-23T13:04:01;2.30;;;2.10;;
19030;SDS011;9648;51.130;13.978;2024-03-23T13:07:02;3.15;;;2.50;;
19030;SDS011;9648;51.130;13.978;2024-03-23T13:10:03;2.63;;;2.42;;
19030;SDS011;9648;51.130;13.978;2024-03-23T13:13:05;2.28;;;2.08;;
19030;SDS011;9648;51.130;13.978;2024-03-23T13:16:08;1.73;;;1.60;;
19030;SDS011;9648;51.130;13.978;2024-03-23T13:19:10;1.95;;;1.85;;
19030;SDS011;9648;51.130;13.978;2024-03-23T13:22:11;1.45;;;1.40;;
19030;SDS011;9648;51.130;13.978;2024-03-23T13:25:13;1.65;;;1.65;;
19030;SDS011;9648;51.130;13.978;2024-03-23T13:28:13;2.53;;;1.55;;
19030;SDS011;9648;51.130;13.978;2024-03-23T13:31:18;10.33;;;5.70;;
19030;SDS011;9648;51.130;13.978;2024-03-23T13:34:20;5.57;;;4.03;;
19030;SDS011;9648;51.130;13.978;2024-03-23T13:37:22;1.85;;;1.38;;
19030;SDS011;9648;51.130;13.978;2024-03-23T13:40:22;1.23;;;1.13;;
19030;SDS011;9648;51.130;13.978;2024-03-23T13:43:25;1.33;;;1.30;;
19030;SDS011;9648;51.130;13.978;2024-03-23T13:46:26;1.70;;;1.60;;
19030;SDS011;9648;51.130;13.978;2024-03-23T13:49:30;2.35;;;1.83;;
19030;SDS011;9648;51.130;13.978;2024-03-23T13:52:32;2.33;;;2.17;;
19030;SDS011;9648;51.130;13.978;2024-03-23T13:55:34;1.92;;;1.83;;
19030;SDS011;9648;51.130;13.978;2024-03-23T13:58:35;2.28;;;2.00;;
19030;SDS011;9648;51.130;13.978;2024-03-23T14:01:39;2.93;;;2.50;;
19030;SDS011;9648;51.130;13.978;2024-03-23T14:04:47;2.40;;;2.27;;
19030;SDS011;9648;51.130;13.978;2024-03-23T14:07:52;3.13;;;2.75;;
19030;SDS011;9648;51.130;13.978;2024-03-23T14:10:53;3.83;;;3.30;;
19030;SDS011;9648;51.130;13.978;2024-03-23T14:14:13;3.20;;;2.80;;
19030;SDS011;9648;51.130;13.978;2024-03-23T14:17:21;3.83;;;3.10;;
19030;SDS011;9648;51.130;13.978;2024-03-23T14:20:24;4.43;;;3.10;;
19030;SDS011;9648;51.130;13.978;2024-03-23T14:23:26;5.95;;;3.53;;
19030;SDS011;9648;51.130;13.978;2024-03-23T14:26:35;5.75;;;3.60;;
19030;SDS011;9648;51.130;13.978;2024-03-23T14:29:39;4.85;;;2.78;;
19030;SDS011;9648;51.130;13.978;2024-03-23T14:32:39;3.60;;;2.70;;
19030;SDS011;9648;51.130;13.978;2024-03-23T14:35:42;3.42;;;2.10;;
19030;SDS011;9648;51.130;13.978;2024-03-23T14:38:49;2.83;;;2.63;;
19030;SDS011;9648;51.130;13.978;2024-03-23T14:41:52;2.80;;;2.30;;
19030;SDS011;9648;51.130;13.978;2024-03-23T14:44:53;3.67;;;2.70;;
19030;SDS011;9648;51.130;13.978;2024-03-23T14:47:54;2.42;;;2.22;;
19030;SDS011;9648;51.130;13.978;2024-03-23T14:50:57;3.40;;;2.90;;
19030;SDS011;9648;51.130;13.978;2024-03-23T14:53:59;3.40;;;2.50;;
19030;SDS011;9648;51.130;13.978;2024-03-23T14:57:00;3.25;;;2.53;;
19030;SDS011;9648;51.130;13.978;2024-03-23T15:00:02;3.10;;;2.55;;
19030;SDS011;9648;51.130;13.978;2024-03-23T15:03:05;2.97;;;2.28;;
19030;SDS011;9648;51.130;13.978;2024-03-23T15:06:07;2.83;;;2.20;;
19030;SDS011;9648;51.130;13.978;2024-03-23T15:09:10;4.32;;;3.67;;
19030;SDS011;9648;51.130;13.978;2024-03-23T15:12:11;4.07;;;3.07;;
19030;SDS011;9648;51.130;13.978;2024-03-23T15:15:18;4.77;;;2.97;;
19030;SDS011;9648;51.130;13.978;2024-03-23T15:22:09;6.53;;;4.70;;
19030;SDS011;9648;51.130;13.978;2024-03-23T15:25:11;6.15;;;3.13;;
19030;SDS011;9648;51.130;13.978;2024-03-23T15:28:15;3.23;;;3.10;;
19030;SDS011;9648;51.130;13.978;2024-03-23T15:31:26;7.45;;;4.22;;
19030;SDS011;9648;51.130;13.978;2024-03-23T15:34:39;5.97;;;4.30;;
19030;SDS011;9648;51.130;13.978;2024-03-23T16:12:30;4.22;;;3.50;;
19030;SDS011;9648;51.130;13.978;2024-03-23T16:15:31;5.97;;;4.13;;
19030;SDS011;9648;51.130;13.978;2024-03-23T16:18:33;5.30;;;3.85;;
19030;SDS011;9648;51.130;13.978;2024-03-23T16:21:36;5.18;;;3.35;;
19030;SDS011;9648;51.130;13.978;2024-03-23T16:24:36;3.60;;;3.05;;
19030;SDS011;9648;51.130;13.978;2024-03-23T16:27:39;2.92;;;2.40;;
19030;SDS011;9648;51.130;13.978;2024-03-23T16:30:39;6.03;;;4.30;;
19030;SDS011;9648;51.130;13.978;2024-03-23T16:33:41;5.10;;;3.72;;
19030;SDS011;9648;51.130;13.978;2024-03-23T16:36:43;5.73;;;4.07;;
19030;SDS011;9648;51.130;13.978;2024-03-23T16:39:43;4.03;;;3.30;;
19030;SDS011;9648;51.130;13.978;2024-03-23T16:42:46;7.35;;;5.30;;
19030;SDS011;9648;51.130;13.978;2024-03-23T16:45:51;6.38;;;4.60;;
19030;SDS011;9648;51.130;13.978;2024-03-23T16:48:53;8.05;;;5.28;;
19030;SDS011;9648;51.130;13.978;2024-03-23T16:51:55;7.13;;;5.47;;
19030;SDS011;9648;51.130;13.978;2024-03-23T16:54:55;6.23;;;4.67;;
19030;SDS011;9648;51.130;13.978;2024-03-23T16:57:58;7.70;;;4.38;;
19030;SDS011;9648;51.130;13.978;2024-03-23T17:01:02;5.70;;;4.05;;
19030;SDS011;9648;51.130;13.978;2024-03-23T17:04:04;4.35;;;3.80;;
19030;SDS011;9648;51.130;13.978;2024-03-23T17:07:04;6.13;;;4.53;;
19030;SDS011;9648;51.130;13.978;2024-03-23T17:10:06;6.32;;;5.00;;
19030;SDS011;9648;51.130;13.978;2024-03-23T17:13:09;10.77;;;7.43;;
19030;SDS011;9648;51.130;13.978;2024-03-23T17:16:11;11.68;;;8.82;;
19030;SDS011;9648;51.130;13.978;2024-03-23T17:19:15;11.35;;;7.85;;
19030;SDS011;9648;51.130;13.978;2024-03-23T17:22:16;16.47;;;12.63;;
19030;SDS011;9648;51.130;13.978;2024-03-23T17:25:17;20.02;;;14.60;;
19030;SDS011;9648;51.130;13.978;2024-03-23T17:28:19;20.17;;;14.45;;
19030;SDS011;9648;51.130;13.978;2024-03-23T17:31:21;17.77;;;13.27;;
19030;SDS011;9648;51.130;13.978;2024-03-23T17:34:23;12.40;;;11.30;;
19030;SDS011;9648;51.130;13.978;2024-03-23T17:37:25;13.30;;;9.55;;
19030;SDS011;9648;51.130;13.978;2024-03-23T17:40:27;12.23;;;8.80;;
19030;SDS011;9648;51.130;13.978;2024-03-23T17:43:30;10.02;;;7.50;;
19030;SDS011;9648;51.130;13.978;2024-03-23T17:46:30;10.90;;;7.40;;
19030;SDS011;9648;51.130;13.978;2024-03-23T17:49:32;8.00;;;6.45;;
19030;SDS011;9648;51.130;13.978;2024-03-23T17:52:33;7.53;;;5.97;;
19030;SDS011;9648;51.130;13.978;2024-03-23T17:55:34;8.90;;;5.53;;
19030;SDS011;9648;51.130;13.978;2024-03-23T17:58:37;7.60;;;4.78;;
19030;SDS011;9648;51.130;13.978;2024-03-23T18:01:38;5.28;;;4.20;;
19030;SDS011;9648;51.130;13.978;2024-03-23T18:04:39;6.87;;;4.43;;
19030;SDS011;9648;51.130;13.978;2024-03-23T18:07:41;4.60;;;4.00;;
19030;SDS011;9648;51.130;13.978;2024-03-23T18:10:42;4.97;;;4.22;;
19030;SDS011;9648;51.130;13.978;2024-03-23T18:13:44;5.80;;;4.50;;
19030;SDS011;9648;51.130;13.978;2024-03-23T18:16:45;5.80;;;4.53;;
19030;SDS011;9648;51.130;13.978;2024-03-23T18:19:49;9.50;;;6.32;;
19030;SDS011;9648;51.130;13.978;2024-03-23T18:22:51;8.90;;;5.90;;
19030;SDS011;9648;51.130;13.978;2024-03-23T18:25:53;8.77;;;7.03;;
19030;SDS011;9648;51.130;13.978;2024-03-23T18:28:57;9.95;;;7.57;;
19030;SDS011;9648;51.130;13.978;2024-03-23T18:31:58;7.22;;;6.20;;
19030;SDS011;9648;51.130;13.978;2024-03-23T18:34:59;9.07;;;6.47;;
19030;SDS011;9648;51.130;13.978;2024-03-23T18:38:00;8.27;;;5.70;;
19030;SDS011;9648;51.130;13.978;2024-03-23T18:41:01;6.88;;;5.32;;
19030;SDS011;9648;51.130;13.978;2024-03-23T18:44:03;7.13;;;5.00;;
19030;SDS011;9648;51.130;13.978;2024-03-23T18:47:05;5.65;;;4.50;;
19030;SDS011;9648;51.130;13.978;2024-03-23T18:50:06;6.10;;;4.47;;
19030;SDS011;9648;51.130;13.978;2024-03-23T18:53:08;7.33;;;5.50;;
19030;SDS011;9648;51.130;13.978;2024-03-23T18:56:09;6.55;;;5.50;;
19030;SDS011;9648;51.130;13.978;2024-03-23T18:59:12;8.02;;;6.07;;
19030;SDS011;9648;51.130;13.978;2024-03-23T19:02:13;7.82;;;6.90;;
19030;SDS011;9648;51.130;13.978;2024-03-23T19:05:14;12.43;;;9.30;;
19030;SDS011;9648;51.130;13.978;2024-03-23T19:08:15;9.45;;;7.30;;
19030;SDS011;9648;51.130;13.978;2024-03-23T19:11:17;10.85;;;8.60;;
19030;SDS011;9648;51.130;13.978;2024-03-23T19:14:20;10.27;;;7.43;;
19030;SDS011;9648;51.130;13.978;2024-03-23T19:17:22;9.30;;;7.00;;
19030;SDS011;9648;51.130;13.978;2024-03-23T19:20:22;10.83;;;8.70;;
19030;SDS011;9648;51.130;13.978;2024-03-23T19:23:24;9.15;;;8.20;;
19030;SDS011;9648;51.130;13.978;2024-03-23T19:26:25;8.18;;;7.43;;
19030;SDS011;9648;51.130;13.978;2024-03-23T19:29:30;8.88;;;7.25;;
19030;SDS011;9648;51.130;13.978;2024-03-23T19:32:30;7.97;;;6.73;;
19030;SDS011;9648;51.130;13.978;2024-03-23T19:35:32;6.85;;;5.20;;
19030;SDS011;9648;51.130;13.978;2024-03-23T19:38:33;7.25;;;5.45;;